createdAt,value
2022-08-26T00:01:53.742Z,24.87
2022-08-26T00:04:22.124Z,24.93
2022-08-26T00:06:49.102Z,24.96
2022-08-26T00:09:16.862Z,24.94
2022-08-26T00:11:45.360Z,24.86
2022-08-26T00:14:14.166Z,24.89
2022-08-26T00:16:48.116Z,24.87
2022-08-26T00:19:18.192Z,24.85
2022-08-26T00:21:48.579Z,24.87
2022-08-26T00:24:17.852Z,24.89
2022-08-26T00:26:44.802Z,24.93
2022-08-26T00:29:12.207Z,24.98
2022-08-26T00:31:39.892Z,24.98
2022-08-26T00:34:09.366Z,24.99
2022-08-26T00:36:37.204Z,24.98
2022-08-26T00:39:06.994Z,25.04
2022-08-26T00:41:36.788Z,25.09
2022-08-26T00:44:04.264Z,25.11
2022-08-26T00:46:36.069Z,25.14
2022-08-26T00:49:35.977Z,25.18
2022-08-26T00:52:09.784Z,25.21
2022-08-26T00:54:46.761Z,25.26
2022-08-26T00:57:18.024Z,25.24
2022-08-26T00:59:57.041Z,25.25
2022-08-26T01:02:24.506Z,25.30
2022-08-26T01:04:56.018Z,25.34
2022-08-26T01:07:26.200Z,25.36
2022-08-26T01:09:55.168Z,25.43
2022-08-26T01:12:24.637Z,25.47
2022-08-26T01:14:52.135Z,25.50
2022-08-26T01:17:19.099Z,25.53
2022-08-26T01:19:51.443Z,25.55
2022-08-26T01:23:03.123Z,25.56
2022-08-26T01:25:33.966Z,25.58
2022-08-26T01:28:06.619Z,25.54
2022-08-26T01:30:35.670Z,25.46
2022-08-26T01:33:07.092Z,25.32
2022-08-26T01:35:34.208Z,25.21
2022-08-26T01:38:02.266Z,25.18
2022-08-26T01:40:36.193Z,25.18
2022-08-26T01:43:06.541Z,25.14
2022-08-26T01:45:35.936Z,25.05
2022-08-26T01:48:09.101Z,25.02
2022-08-26T01:50:38.616Z,25.06
2022-08-26T01:53:10.663Z,25.11
2022-08-26T01:55:43.576Z,25.17
2022-08-26T01:58:23.813Z,25.21
2022-08-26T02:00:51.782Z,25.28
2022-08-26T02:03:22.235Z,25.35
2022-08-26T02:05:57.425Z,25.36
2022-08-26T02:08:49.223Z,25.35
2022-08-26T02:11:18.408Z,25.37
2022-08-26T02:13:50.817Z,25.39
2022-08-26T02:16:22.788Z,25.41
2022-08-26T02:18:52.782Z,25.46
2022-08-26T02:21:20.547Z,25.48
2022-08-26T02:23:47.616Z,25.51
2022-08-26T02:26:21.197Z,25.51
2022-08-26T02:29:03.896Z,25.42
2022-08-26T02:31:31.279Z,25.33
2022-08-26T02:34:20.308Z,25.25
2022-08-26T02:36:47.203Z,25.24
2022-08-26T02:39:18.009Z,25.28
2022-08-26T02:41:49.757Z,25.17
2022-08-26T02:44:16.709Z,25.10
2022-08-26T02:46:46.808Z,25.06
2022-08-26T02:49:16.296Z,25.06
2022-08-26T02:51:44.118Z,25.07
2022-08-26T02:54:11.106Z,25.09
2022-08-26T02:56:38.058Z,25.11
2022-08-26T02:59:05.759Z,25.07
2022-08-26T03:01:36.046Z,25.03
2022-08-26T03:04:06.340Z,24.95
2022-08-26T03:06:33.280Z,24.85
2022-08-26T03:09:00.171Z,24.74
2022-08-26T03:11:32.305Z,24.68
2022-08-26T03:14:01.737Z,24.63
2022-08-26T03:16:35.726Z,24.59
2022-08-26T03:19:06.002Z,24.58
2022-08-26T03:21:33.357Z,24.51
2022-08-26T03:24:00.494Z,24.52
2022-08-26T03:26:29.036Z,24.53
2022-08-26T03:29:15.163Z,24.54
2022-08-26T03:31:43.708Z,24.62
2022-08-26T03:34:14.142Z,24.65
2022-08-26T03:36:42.123Z,24.66
2022-08-26T03:39:10.994Z,24.69
2022-08-26T03:41:39.040Z,24.73
2022-08-26T03:44:08.876Z,24.72
2022-08-26T03:46:36.386Z,24.79
2022-08-26T03:49:05.976Z,24.82
2022-08-26T03:51:34.674Z,24.81
2022-08-26T03:54:08.369Z,24.80
2022-08-26T03:56:36.542Z,24.82
2022-08-26T03:59:04.595Z,24.83
2022-08-26T04:01:31.591Z,24.78
2022-08-26T04:04:00.507Z,24.75
2022-08-26T04:06:35.564Z,24.76
2022-08-26T04:09:07.829Z,24.78
2022-08-26T04:11:37.841Z,24.81
2022-08-26T04:14:10.718Z,24.86
2022-08-26T04:16:38.537Z,24.86
2022-08-26T04:19:06.566Z,24.89
2022-08-26T04:21:35.327Z,24.92
2022-08-26T04:24:03.700Z,24.92
2022-08-26T04:26:39.455Z,24.87
2022-08-26T04:29:20.604Z,24.82
2022-08-26T04:31:50.560Z,24.74
2022-08-26T04:34:24.620Z,24.75
2022-08-26T04:36:54.659Z,24.80
2022-08-26T04:39:21.593Z,24.76
2022-08-26T04:41:50.733Z,24.84
2022-08-26T04:44:18.645Z,24.83
2022-08-26T04:46:45.677Z,24.84
2022-08-26T04:49:13.568Z,24.81
2022-08-26T04:51:40.653Z,24.89
2022-08-26T04:54:08.038Z,24.90
2022-08-26T04:56:39.167Z,24.89
2022-08-26T04:59:16.825Z,24.90
2022-08-26T05:01:46.614Z,24.87
2022-08-26T05:04:13.784Z,24.97
2022-08-26T05:06:43.603Z,24.98
2022-08-26T05:09:10.556Z,25.00
2022-08-26T05:11:38.387Z,24.95
2022-08-26T05:14:06.046Z,25.04
2022-08-26T05:16:33.300Z,25.05
2022-08-26T05:19:00.263Z,25.11
2022-08-26T05:21:29.069Z,25.09
2022-08-26T05:23:56.622Z,25.05
2022-08-26T05:26:30.615Z,25.02
2022-08-26T05:28:58.240Z,24.97
2022-08-26T05:31:31.747Z,25.08
2022-08-26T05:34:00.414Z,25.13
2022-08-26T05:36:33.489Z,25.12
2022-08-26T05:39:03.605Z,25.13
2022-08-26T05:41:36.650Z,25.18
2022-08-26T05:44:10.354Z,25.18
2022-08-26T05:46:38.316Z,25.14
2022-08-26T05:49:12.663Z,25.19
2022-08-26T05:51:45.117Z,25.24
2022-08-26T05:54:13.366Z,25.30
2022-08-26T05:56:40.275Z,25.36
2022-08-26T05:59:14.709Z,25.42
2022-08-26T06:01:43.529Z,25.48
2022-08-26T06:04:11.658Z,25.53
2022-08-26T06:06:41.375Z,25.58
2022-08-26T06:09:10.884Z,25.67
2022-08-26T06:11:38.829Z,25.71
2022-08-26T06:14:07.912Z,25.81
2022-08-26T06:16:40.968Z,25.87
2022-08-26T06:19:11.692Z,25.93
2022-08-26T06:21:42.043Z,26.00
2022-08-26T06:24:31.649Z,26.02
2022-08-26T06:27:04.873Z,25.91
2022-08-26T06:29:34.550Z,25.82
2022-08-26T06:32:04.524Z,25.75
2022-08-26T06:34:31.752Z,25.69
2022-08-26T06:37:02.730Z,25.64
2022-08-26T06:39:31.853Z,25.61
2022-08-26T06:42:03.209Z,25.62
2022-08-26T06:44:34.394Z,25.65
2022-08-26T06:47:01.483Z,25.64
2022-08-26T06:49:28.484Z,25.64
2022-08-26T06:51:58.957Z,25.67
2022-08-26T06:54:32.369Z,25.73
2022-08-26T06:56:59.616Z,25.78
2022-08-26T06:59:27.136Z,25.79
2022-08-26T07:01:54.902Z,25.81
2022-08-26T07:04:23.212Z,25.92
2022-08-26T07:06:52.944Z,25.98
2022-08-26T07:09:23.709Z,26.01
2022-08-26T07:11:51.863Z,26.02
2022-08-26T07:14:21.455Z,26.04
2022-08-26T07:16:49.981Z,26.05
2022-08-26T07:19:30.146Z,26.03
2022-08-26T07:22:05.517Z,26.06
2022-08-26T07:24:35.354Z,26.09
2022-08-26T07:27:06.203Z,26.12
2022-08-26T07:29:34.933Z,26.11
2022-08-26T07:32:02.468Z,26.12
2022-08-26T07:34:29.877Z,26.18
2022-08-26T07:36:56.985Z,26.20
2022-08-26T07:39:25.197Z,26.20
2022-08-26T07:41:52.879Z,26.24
2022-08-26T07:44:19.867Z,26.34
2022-08-26T07:46:52.108Z,26.39
2022-08-26T07:49:22.639Z,26.43
2022-08-26T07:51:51.168Z,26.44
2022-08-26T07:54:18.649Z,26.50
2022-08-26T07:56:46.888Z,26.55
2022-08-26T07:59:14.942Z,26.67
2022-08-26T08:01:45.107Z,26.72
2022-08-26T08:04:18.881Z,26.78
2022-08-26T08:06:52.538Z,26.84
2022-08-26T08:09:19.497Z,26.90
2022-08-26T08:11:49.862Z,26.97
2022-08-26T08:14:18.558Z,27.05
2022-08-26T08:16:54.425Z,27.14
2022-08-26T08:19:23.915Z,27.23
2022-08-26T08:21:54.565Z,27.31
2022-08-26T08:24:21.993Z,27.33
2022-08-26T08:26:48.913Z,27.34
2022-08-26T08:29:15.821Z,27.34
2022-08-26T08:31:56.524Z,27.35
2022-08-26T08:34:28.298Z,27.38
2022-08-26T08:36:57.111Z,27.43
2022-08-26T08:39:25.495Z,27.50
2022-08-26T08:42:23.427Z,27.58
2022-08-26T08:44:53.338Z,27.68
2022-08-26T08:47:54.618Z,27.72
2022-08-26T08:50:33.959Z,27.83
2022-08-26T08:53:34.511Z,27.90
2022-08-26T08:56:15.781Z,27.97
2022-08-26T08:58:59.516Z,28.00
2022-08-26T09:01:45.541Z,27.88
2022-08-26T09:04:29.978Z,27.75
2022-08-26T09:07:00.138Z,27.63
2022-08-26T09:09:39.803Z,27.62
2022-08-26T09:12:21.425Z,27.70
2022-08-26T09:15:30.441Z,27.82
2022-08-26T09:18:30.188Z,27.93
2022-08-26T09:21:05.052Z,28.05
2022-08-26T09:23:36.444Z,28.02
2022-08-26T09:26:20.229Z,28.03
2022-08-26T09:29:27.080Z,28.12
2022-08-26T09:32:19.537Z,28.26
2022-08-26T09:35:02.209Z,28.40
2022-08-26T09:40:26.873Z,28.51
2022-08-26T09:43:22.073Z,28.60
2022-08-26T09:45:59.065Z,28.70
2022-08-26T09:48:35.565Z,28.80
2022-08-26T09:51:23.999Z,28.96
2022-08-26T09:53:58.376Z,29.08
2022-08-26T09:56:39.385Z,29.18
2022-08-26T09:59:12.021Z,29.21
2022-08-26T10:01:44.053Z,29.20
2022-08-26T10:04:20.665Z,29.21
2022-08-26T10:07:07.346Z,29.26
2022-08-26T10:09:40.870Z,29.33
2022-08-26T10:12:15.343Z,29.41
2022-08-26T10:15:09.068Z,29.50
2022-08-26T10:17:49.783Z,29.64
2022-08-26T10:20:27.505Z,29.75
2022-08-26T10:23:18.031Z,29.84
2022-08-26T10:25:57.003Z,29.97
2022-08-26T10:28:52.716Z,30.13
2022-08-26T10:31:27.928Z,30.28
2022-08-26T10:33:58.794Z,30.41
2022-08-26T10:37:15.065Z,30.51
2022-08-26T10:40:03.768Z,30.65
2022-08-26T10:42:39.152Z,30.78
2022-08-26T10:45:15.020Z,30.89
2022-08-26T10:48:06.488Z,30.90
2022-08-26T10:50:38.826Z,30.84
2022-08-26T10:53:17.211Z,30.84
2022-08-26T10:56:41.198Z,30.83
2022-08-26T10:59:30.868Z,30.96
2022-08-26T11:02:15.371Z,31.06
2022-08-26T11:04:57.770Z,31.20
2022-08-26T11:07:39.686Z,31.25
2022-08-26T11:10:20.516Z,31.31
2022-08-26T11:13:04.611Z,31.42
2022-08-26T11:15:31.704Z,31.51
2022-08-26T11:18:05.956Z,31.56
2022-08-26T11:20:47.159Z,31.59
2022-08-26T11:23:14.412Z,31.65
2022-08-26T11:25:57.036Z,31.73
2022-08-26T11:28:45.076Z,31.83
2022-08-26T11:31:37.632Z,31.94
2022-08-26T11:34:10.923Z,32.01
2022-08-26T11:36:45.599Z,32.00
2022-08-26T11:39:55.039Z,31.97
2022-08-26T11:42:40.928Z,31.90
2022-08-26T11:45:31.590Z,31.88
2022-08-26T11:47:58.841Z,31.87
2022-08-26T11:50:28.455Z,31.91
2022-08-26T11:53:02.001Z,32.00
2022-08-26T11:55:35.600Z,32.11
2022-08-26T11:58:06.423Z,32.20
2022-08-26T12:00:58.977Z,32.24
2022-08-26T12:03:44.187Z,32.24
2022-08-26T12:06:46.393Z,32.15
2022-08-26T12:09:34.347Z,32.10
2022-08-26T12:12:34.168Z,32.10
2022-08-26T12:15:22.715Z,31.97
2022-08-26T12:17:54.595Z,31.92
2022-08-26T12:20:46.467Z,31.83
2022-08-26T12:23:41.277Z,31.78
2022-08-26T12:26:23.438Z,31.74
2022-08-26T12:29:19.886Z,31.72
2022-08-26T12:31:47.984Z,31.73
2022-08-26T12:34:17.944Z,31.73
2022-08-26T12:36:55.799Z,31.73
2022-08-26T12:39:36.238Z,31.68
2022-08-26T12:42:17.514Z,31.61
2022-08-26T12:44:53.946Z,31.57
2022-08-26T12:47:43.566Z,31.55
2022-08-26T12:50:33.626Z,31.62
2022-08-26T12:53:09.421Z,31.65
2022-08-26T12:56:05.403Z,31.64
2022-08-26T12:58:36.184Z,31.65
2022-08-26T13:01:08.793Z,31.66
2022-08-26T13:03:38.539Z,31.66
2022-08-26T13:06:31.137Z,31.69
2022-08-26T13:09:25.309Z,31.72
2022-08-26T13:11:54.932Z,31.77
2022-08-26T13:14:24.678Z,31.81
2022-08-26T13:16:53.107Z,31.88
2022-08-26T13:19:25.377Z,31.93
2022-08-26T13:22:00.642Z,31.92
2022-08-26T13:24:38.603Z,31.97
2022-08-26T13:27:07.778Z,32.03
2022-08-26T13:29:35.127Z,32.07
2022-08-26T13:32:02.315Z,32.09
2022-08-26T13:34:30.851Z,32.14
2022-08-26T13:36:59.141Z,32.21
2022-08-26T13:39:26.768Z,32.17
2022-08-26T13:41:54.738Z,32.06
2022-08-26T13:44:21.771Z,31.95
2022-08-26T13:46:49.088Z,31.85
2022-08-26T13:49:16.106Z,31.79
2022-08-26T13:51:43.103Z,31.70
2022-08-26T13:54:10.059Z,31.62
2022-08-26T13:56:37.443Z,31.50
2022-08-26T13:59:05.565Z,31.45
2022-08-26T14:01:35.347Z,31.41
2022-08-26T14:04:03.053Z,31.31
2022-08-26T14:06:30.155Z,31.27
2022-08-26T14:08:57.415Z,31.21
2022-08-26T14:11:24.966Z,31.17
2022-08-26T14:13:52.340Z,31.08
2022-08-26T14:16:31.440Z,31.01
2022-08-26T14:19:01.221Z,30.91
2022-08-26T14:21:34.499Z,30.75
2022-08-26T14:24:01.478Z,30.60
2022-08-26T14:26:29.824Z,30.49
2022-08-26T14:29:02.621Z,30.47
2022-08-26T14:31:31.697Z,30.51
2022-08-26T14:34:04.291Z,30.52
2022-08-26T14:36:32.363Z,30.53
2022-08-26T14:39:05.042Z,30.41
2022-08-26T14:41:33.675Z,30.28
2022-08-26T14:44:05.890Z,30.25
2022-08-26T14:46:43.121Z,30.22
2022-08-26T14:49:10.855Z,30.26
2022-08-26T14:51:38.999Z,30.29
2022-08-26T14:54:12.039Z,30.36
2022-08-26T14:56:48.814Z,30.34
2022-08-26T14:59:38.604Z,30.34
2022-08-26T15:02:13.792Z,30.33
2022-08-26T15:04:45.065Z,30.34
2022-08-26T15:07:12.636Z,30.37
2022-08-26T15:09:39.851Z,30.42
2022-08-26T15:12:06.907Z,30.47
2022-08-26T15:14:34.291Z,30.51
2022-08-26T15:17:01.253Z,30.47
2022-08-26T15:19:28.429Z,30.46
2022-08-26T15:21:56.579Z,30.45
2022-08-26T15:24:25.862Z,30.45
2022-08-26T15:26:53.395Z,30.47
2022-08-26T15:29:20.987Z,30.42
2022-08-26T15:31:48.679Z,30.35
2022-08-26T15:34:17.147Z,30.27
2022-08-26T15:36:46.264Z,30.17
2022-08-26T15:39:15.284Z,30.06
2022-08-26T15:41:42.203Z,29.94
2022-08-26T15:44:10.493Z,29.83
2022-08-26T15:46:38.617Z,29.73
2022-08-26T15:49:07.051Z,29.63
2022-08-26T15:51:45.673Z,29.49
2022-08-26T15:54:15.950Z,29.34
2022-08-26T15:56:43.607Z,29.19
2022-08-26T15:59:11.497Z,29.10
2022-08-26T16:01:38.810Z,28.92
2022-08-26T16:04:05.864Z,28.83
2022-08-26T16:06:36.049Z,28.69
2022-08-26T16:09:03.834Z,28.48
2022-08-26T16:11:31.166Z,28.16
2022-08-26T16:13:58.330Z,27.92
2022-08-26T16:16:25.255Z,27.83
2022-08-26T16:18:52.415Z,27.78
2022-08-26T16:21:24.606Z,27.76
2022-08-26T16:23:52.209Z,27.76
2022-08-26T16:26:24.152Z,27.69
2022-08-26T16:28:51.201Z,27.53
2022-08-26T16:31:18.694Z,27.37
2022-08-26T16:33:46.231Z,27.30
2022-08-26T16:36:14.264Z,27.33
2022-08-26T16:38:41.653Z,27.35
2022-08-26T16:41:08.671Z,27.40
2022-08-26T16:43:36.037Z,27.42
2022-08-26T16:46:06.940Z,27.45
2022-08-26T16:48:35.236Z,27.42
2022-08-26T16:51:02.154Z,27.42
2022-08-26T16:53:29.098Z,27.42
2022-08-26T16:55:56.025Z,27.42
2022-08-26T16:58:23.000Z,27.42
2022-08-26T17:00:50.161Z,27.40
2022-08-26T17:03:17.344Z,27.41
2022-08-26T17:05:44.514Z,27.40
2022-08-26T17:08:13.775Z,27.39
2022-08-26T17:13:10.479Z,27.37
2022-08-26T17:15:37.542Z,27.30
2022-08-26T17:18:05.092Z,27.25
2022-08-26T17:20:32.311Z,27.25
2022-08-26T17:22:59.376Z,27.27
2022-08-26T17:25:31.632Z,27.25
2022-08-26T17:27:59.600Z,27.23
2022-08-26T17:30:27.034Z,27.25
2022-08-26T17:32:55.044Z,27.24
2022-08-26T17:35:22.748Z,27.18
2022-08-26T17:37:49.720Z,27.10
2022-08-26T17:40:21.018Z,27.13
2022-08-26T17:42:48.500Z,27.09
2022-08-26T17:45:15.947Z,27.06
2022-08-26T17:47:43.543Z,27.02
2022-08-26T17:50:14.970Z,26.98
2022-08-26T17:52:42.196Z,26.90
2022-08-26T17:55:12.723Z,26.84
2022-08-26T17:57:40.549Z,26.78
2022-08-26T18:00:16.715Z,26.71
2022-08-26T18:02:43.936Z,26.68
2022-08-26T18:05:14.292Z,26.66
2022-08-26T18:07:44.056Z,26.64
2022-08-26T18:10:14.057Z,26.62
2022-08-26T18:12:41.576Z,26.63
2022-08-26T18:15:11.180Z,26.60
2022-08-26T18:17:39.320Z,26.56
2022-08-26T18:20:13.229Z,26.52
2022-08-26T18:22:41.958Z,26.48
2022-08-26T18:25:09.915Z,26.42
2022-08-26T18:27:37.874Z,26.28
2022-08-26T18:30:14.571Z,26.17
2022-08-26T18:32:43.316Z,26.13
2022-08-26T18:35:11.560Z,26.17
2022-08-26T18:37:38.654Z,26.13
2022-08-26T18:40:09.456Z,26.08
2022-08-26T18:42:36.375Z,26.09
2022-08-26T18:45:08.716Z,26.13
2022-08-26T18:47:36.013Z,26.16
2022-08-26T18:50:04.910Z,26.22
2022-08-26T18:52:32.552Z,26.25
2022-08-26T18:54:59.507Z,26.36
2022-08-26T18:57:26.454Z,26.42
2022-08-26T18:59:53.347Z,26.43
2022-08-26T19:02:20.380Z,26.52
2022-08-26T19:04:47.396Z,26.54
2022-08-26T19:07:14.506Z,26.59
2022-08-26T19:09:41.482Z,26.60
2022-08-26T19:12:08.844Z,26.56
2022-08-26T19:14:36.440Z,26.41
2022-08-26T19:17:03.727Z,26.24
2022-08-26T19:19:31.661Z,26.17
2022-08-26T19:21:58.587Z,26.11
2022-08-26T19:24:25.990Z,26.03
2022-08-26T19:26:59.670Z,26.01
2022-08-26T19:29:33.484Z,26.04
2022-08-26T19:32:00.776Z,26.09
2022-08-26T19:34:29.234Z,26.04
2022-08-26T19:36:58.212Z,25.93
2022-08-26T19:39:26.503Z,25.87
2022-08-26T19:41:53.647Z,25.82
2022-08-26T19:44:41.605Z,25.80
2022-08-26T19:47:10.937Z,25.70
2022-08-26T19:49:39.031Z,25.62
2022-08-26T19:52:06.294Z,25.50
2022-08-26T19:54:34.103Z,25.37
2022-08-26T19:57:01.101Z,25.30
2022-08-26T19:59:29.064Z,25.36
2022-08-26T20:02:01.483Z,25.44
2022-08-26T20:04:30.691Z,25.54
2022-08-26T20:07:00.526Z,25.62
2022-08-26T20:09:32.665Z,25.68
2022-08-26T20:12:00.417Z,25.73
2022-08-26T20:14:28.491Z,25.77
2022-08-26T20:16:55.535Z,25.81
2022-08-26T20:19:41.361Z,25.79
2022-08-26T20:22:08.752Z,25.78
2022-08-26T20:24:35.706Z,25.82
2022-08-26T20:27:07.680Z,25.85
2022-08-26T20:29:36.836Z,25.88
2022-08-26T20:32:06.390Z,25.88
2022-08-26T20:34:34.772Z,25.89
2022-08-26T20:37:02.725Z,25.90
2022-08-26T20:39:29.850Z,25.98
2022-08-26T20:41:57.792Z,26.06
2022-08-26T20:44:25.571Z,26.04
2022-08-26T20:46:52.623Z,26.03
2022-08-26T20:49:19.788Z,25.99
2022-08-26T20:51:51.359Z,25.98
2022-08-26T20:54:22.124Z,25.99
2022-08-26T20:56:51.814Z,25.96
2022-08-26T20:59:19.339Z,25.90
2022-08-26T21:01:47.432Z,25.80
2022-08-26T21:04:19.444Z,25.74
2022-08-26T21:06:52.407Z,25.76
2022-08-26T21:09:22.150Z,25.80
2022-08-26T21:11:50.500Z,25.80
2022-08-26T21:14:18.932Z,25.74
2022-08-26T21:16:47.093Z,25.69
2022-08-26T21:19:17.510Z,25.70
2022-08-26T21:21:46.684Z,25.74
2022-08-26T21:24:14.144Z,25.81
2022-08-26T21:26:41.197Z,25.89
2022-08-26T21:29:09.937Z,25.97
2022-08-26T21:31:42.150Z,26.03
2022-08-26T21:34:12.139Z,26.02
2022-08-26T21:36:39.052Z,25.96
2022-08-26T21:39:11.253Z,25.90
2022-08-26T21:41:40.319Z,25.90
2022-08-26T21:44:07.704Z,25.92
2022-08-26T21:46:37.148Z,25.93
2022-08-26T21:49:07.651Z,25.83
2022-08-26T21:51:38.956Z,25.65
2022-08-26T21:54:10.828Z,25.49
2022-08-26T21:56:44.176Z,25.38
2022-08-26T21:59:12.147Z,25.32
2022-08-26T22:01:39.143Z,25.27
2022-08-26T22:04:09.065Z,25.21
2022-08-26T22:06:45.530Z,25.23
2022-08-26T22:09:15.009Z,25.26
2022-08-26T22:11:42.029Z,25.35
2022-08-26T22:14:09.580Z,25.44
2022-08-26T22:16:36.589Z,25.51
2022-08-26T22:19:03.569Z,25.54
2022-08-26T22:21:30.567Z,25.57
2022-08-26T22:23:58.570Z,25.67
2022-08-26T22:26:30.143Z,25.67
2022-08-26T22:28:59.500Z,25.72
2022-08-26T22:31:37.159Z,25.74
2022-08-26T22:34:19.449Z,25.72
2022-08-26T22:36:48.928Z,25.74
2022-08-26T22:39:21.315Z,25.73
2022-08-26T22:41:49.411Z,25.68
2022-08-26T22:44:18.256Z,25.78
2022-08-26T22:46:46.237Z,25.80
2022-08-26T22:49:17.426Z,25.78
2022-08-26T22:51:45.583Z,25.75
2022-08-26T22:54:13.989Z,25.75
2022-08-26T22:56:41.493Z,25.75
2022-08-26T22:59:08.900Z,25.74
2022-08-26T23:01:42.580Z,25.68
2022-08-26T23:04:10.915Z,25.66
2022-08-26T23:06:41.768Z,25.68
2022-08-26T23:09:09.394Z,25.70
2022-08-26T23:11:36.364Z,25.71
2022-08-26T23:14:06.317Z,25.70
2022-08-26T23:16:41.534Z,25.71
2022-08-26T23:19:11.336Z,25.70
2022-08-26T23:21:39.055Z,25.69
2022-08-26T23:24:07.601Z,25.69
2022-08-26T23:26:35.206Z,25.70
2022-08-26T23:29:02.837Z,25.68
2022-08-26T23:31:29.840Z,25.64
2022-08-26T23:34:15.473Z,25.62
2022-08-26T23:36:44.144Z,25.58
2022-08-26T23:39:14.035Z,25.55
2022-08-26T23:41:41.637Z,25.53
2022-08-26T23:44:08.528Z,25.53
2022-08-26T23:46:35.993Z,25.53
2022-08-26T23:49:04.119Z,25.50
2022-08-26T23:51:50.099Z,25.44
2022-08-26T23:54:17.088Z,25.28
2022-08-26T23:56:44.206Z,25.12
2022-08-26T23:59:11.447Z,24.97
